Time;durP1;ratioP1;P1;durP2;ratioP2;P2;SDS_P1;SDS_P2;PMS_P1;PMS_P2;Temp;Humidity;BMP_temperature;BMP_pressure;BME280_temperature;BME280_humidity;BME280_pressure;Samples;Min_cycle;Max_cycle;Signal;HPM_P1;HPM_P2
2024/01/03 00:01:38;;;;;;;9.13;1.13;;;8.30;99.90;;;;;;5091972;28;20946;-79
2024/01/03 00:04:05;;;;;;;3.37;0.50;;;8.30;99.90;;;;;;5090902;28;20397;-79
2024/01/03 00:06:33;;;;;;;6.70;1.10;;;8.20;99.90;;;;;;5092388;28;20402;-78
2024/01/03 00:08:59;;;;;;;8.17;0.90;;;8.20;99.90;;;;;;5088545;28;20406;-77
2024/01/03 00:11:30;;;;;;;6.05;1.00;;;8.10;99.90;;;;;;5091747;28;20844;-78
2024/01/03 00:14:05;;;;;;;8.48;1.00;;;8.10;99.90;;;;;;5089600;28;20451;-78
2024/01/03 00:16:32;;;;;;;7.00;0.90;;;8.10;99.90;;;;;;5083174;28;20983;-79
2024/01/03 00:18:59;;;;;;;8.45;1.25;;;8.10;99.90;;;;;;5085141;28;20558;-79
2024/01/03 00:21:27;;;;;;;8.40;1.02;;;8.10;99.90;;;;;;5088588;28;20792;-80
2024/01/03 00:23:56;;;;;;;7.05;1.40;;;8.10;99.90;;;;;;5090486;28;20402;-80
2024/01/03 00:26:26;;;;;;;10.35;1.10;;;8.10;99.90;;;;;;5077733;28;20467;-79
2024/01/03 00:28:52;;;;;;;9.35;1.70;;;8.10;99.90;;;;;;5090510;28;20463;-80
2024/01/03 00:31:36;;;;;;;10.93;1.60;;;8.00;99.90;;;;;;5090993;28;20398;-79
2024/01/03 00:34:02;;;;;;;10.15;1.30;;;8.10;99.90;;;;;;5071876;28;20987;-79
2024/01/03 00:36:28;;;;;;;9.35;1.33;;;8.00;99.90;;;;;;5091267;28;20402;-80
2024/01/03 00:38:54;;;;;;;8.77;1.53;;;8.00;99.90;;;;;;5091657;28;20410;-80
2024/01/03 00:41:19;;;;;;;9.60;1.30;;;8.00;99.90;;;;;;5070991;28;20430;-79
2024/01/03 00:43:45;;;;;;;6.40;1.23;;;8.00;99.90;;;;;;5090737;28;20440;-80
2024/01/03 00:46:12;;;;;;;6.80;1.00;;;8.00;99.90;;;;;;5089476;28;20414;-79
2024/01/03 00:48:40;;;;;;;9.15;1.13;;;8.00;99.90;;;;;;5090548;28;20410;-80
2024/01/03 00:51:07;;;;;;;7.00;0.98;;;7.90;99.90;;;;;;5090101;28;20410;-80
2024/01/03 00:53:33;;;;;;;6.90;1.15;;;7.90;99.90;;;;;;5092415;28;20402;-79
2024/01/03 00:55:59;;;;;;;8.25;1.15;;;7.90;99.90;;;;;;5090427;28;20700;-80
2024/01/03 00:58:24;;;;;;;5.60;0.80;;;7.90;99.90;;;;;;5091080;28;20410;-80
2024/01/03 01:00:50;;;;;;;8.00;0.87;;;7.90;99.90;;;;;;5090410;28;20437;-80
2024/01/03 01:03:17;;;;;;;7.75;1.13;;;7.90;99.90;;;;;;5080409;28;20805;-80
2024/01/03 01:05:43;;;;;;;12.43;1.65;;;7.90;99.90;;;;;;5088444;28;20420;-80
2024/01/03 01:08:08;;;;;;;8.23;1.20;;;7.80;99.90;;;;;;5092555;28;20406;-79
2024/01/03 01:10:34;;;;;;;10.37;1.47;;;7.80;99.90;;;;;;5090607;28;20406;-80
2024/01/03 01:12:59;;;;;;;12.43;1.80;;;7.90;99.90;;;;;;5092032;28;20405;-79
2024/01/03 01:15:25;;;;;;;10.00;1.47;;;7.80;99.90;;;;;;5089782;28;20410;-79
2024/01/03 01:17:51;;;;;;;9.57;1.40;;;7.80;99.90;;;;;;5092067;28;20398;-80
2024/01/03 01:20:16;;;;;;;11.33;1.60;;;7.80;99.90;;;;;;5088557;28;20432;-80
2024/01/03 01:22:42;;;;;;;9.83;1.27;;;7.80;99.90;;;;;;5088201;28;20483;-80
2024/01/03 01:25:08;;;;;;;8.38;1.50;;;7.80;99.90;;;;;;5088149;28;20403;-80
2024/01/03 01:27:33;;;;;;;10.30;1.47;;;7.80;99.90;;;;;;5088583;28;20425;-80
2024/01/03 01:29:59;;;;;;;9.68;1.25;;;7.80;99.90;;;;;;5087883;28;20416;-79
2024/01/03 01:32:24;;;;;;;11.30;1.50;;;7.80;99.90;;;;;;5089639;28;20400;-79
2024/01/03 01:34:50;;;;;;;10.73;1.85;;;7.80;99.90;;;;;;5088532;28;20816;-79
2024/01/03 01:37:15;;;;;;;9.63;1.23;;;7.80;99.90;;;;;;5089501;28;20478;-80
2024/01/03 01:39:44;;;;;;;10.93;1.50;;;7.80;99.90;;;;;;5089362;28;20402;-80
2024/01/03 01:42:10;;;;;;;11.50;1.60;;;7.80;99.90;;;;;;5089346;28;20420;-80
2024/01/03 01:44:35;;;;;;;13.93;1.80;;;7.80;99.90;;;;;;5089069;28;20803;-81
2024/01/03 01:47:01;;;;;;;12.57;1.65;;;7.80;99.90;;;;;;5088659;28;20962;-81
2024/01/03 01:49:27;;;;;;;11.13;1.83;;;7.80;99.90;;;;;;5088349;28;20398;-80
2024/01/03 01:51:53;;;;;;;10.03;1.80;;;7.80;99.90;;;;;;5088918;28;20771;-80
2024/01/03 01:54:20;;;;;;;14.23;1.92;;;7.80;99.90;;;;;;5088286;28;20420;-80
2024/01/03 01:56:47;;;;;;;12.17;1.60;;;7.80;99.90;;;;;;5090633;28;20479;-80
2024/01/03 01:59:14;;;;;;;12.18;1.73;;;7.80;99.90;;;;;;5089952;28;20406;-80
2024/01/03 02:01:39;;;;;;;15.85;1.92;;;7.80;99.90;;;;;;5090257;28;20453;-80
2024/01/03 02:04:08;;;;;;;7.32;1.55;;;7.80;99.90;;;;;;5088523;28;20903;-80
2024/01/03 02:06:35;;;;;;;11.10;2.00;;;7.80;99.90;;;;;;5087483;28;20485;-80
2024/01/03 02:09:00;;;;;;;10.57;1.73;;;7.80;99.90;;;;;;5086681;28;20759;-80
2024/01/03 02:11:26;;;;;;;10.07;1.60;;;7.80;99.90;;;;;;5088772;28;20406;-80
2024/01/03 02:13:51;;;;;;;11.87;2.00;;;7.80;99.90;;;;;;5087565;28;20406;-80
2024/01/03 02:16:17;;;;;;;15.40;2.10;;;7.80;99.90;;;;;;5079870;28;20949;-79
2024/01/03 02:18:44;;;;;;;13.13;2.23;;;7.90;99.90;;;;;;5087557;28;20481;-79
2024/01/03 02:21:15;;;;;;;12.57;1.67;;;7.80;99.90;;;;;;5087195;28;20429;-79
2024/01/03 02:23:41;;;;;;;13.05;1.90;;;7.90;99.90;;;;;;5094422;28;20453;-80
2024/01/03 02:26:08;;;;;;;7.90;1.60;;;7.90;99.90;;;;;;5074547;28;20475;-79
2024/01/03 02:28:33;;;;;;;11.25;1.55;;;7.90;99.90;;;;;;5093501;28;20474;-78
2024/01/03 02:30:59;;;;;;;15.23;1.77;;;7.90;99.90;;;;;;5103029;28;20412;-79
2024/01/03 02:33:25;;;;;;;13.07;1.93;;;7.80;99.90;;;;;;5093852;28;20446;-79
2024/01/03 02:35:50;;;;;;;12.13;1.85;;;7.90;99.90;;;;;;5100623;28;20410;-79
2024/01/03 02:38:16;;;;;;;11.67;1.87;;;7.90;99.90;;;;;;5106173;28;20415;-79
2024/01/03 02:40:44;;;;;;;10.57;1.53;;;7.90;99.90;;;;;;5100950;28;20433;-79
2024/01/03 02:43:10;;;;;;;14.45;2.05;;;7.90;99.90;;;;;;5104279;28;20420;-79
2024/01/03 02:45:35;;;;;;;8.98;1.63;;;7.90;99.90;;;;;;5083027;28;20417;-79
2024/01/03 02:48:01;;;;;;;11.80;2.30;;;7.90;99.90;;;;;;5095217;28;21183;-79
2024/01/03 02:50:27;;;;;;;16.70;2.10;;;7.90;99.90;;;;;;5095553;28;20772;-79
2024/01/03 02:52:52;;;;;;;14.87;2.70;;;7.90;99.90;;;;;;5098661;28;20409;-79
2024/01/03 02:55:18;;;;;;;11.25;2.40;;;7.90;99.90;;;;;;5105616;28;20483;-77
2024/01/03 02:57:44;;;;;;;13.50;2.17;;;7.90;99.90;;;;;;5084031;28;20480;-80
2024/01/03 03:00:11;;;;;;;16.95;2.50;;;7.90;99.90;;;;;;5106445;28;20440;-80
2024/01/03 03:02:36;;;;;;;9.80;1.67;;;8.00;99.90;;;;;;5105358;28;20404;-80
2024/01/03 03:05:02;;;;;;;8.30;1.80;;;8.00;99.90;;;;;;5109102;28;20400;-78
2024/01/03 03:07:28;;;;;;;11.75;2.17;;;7.90;99.90;;;;;;5106677;28;20444;-79
2024/01/03 03:09:53;;;;;;;13.68;2.40;;;8.00;99.90;;;;;;5109254;28;20407;-78
2024/01/03 03:12:19;;;;;;;11.93;1.70;;;8.00;99.90;;;;;;5104961;28;20758;-78
2024/01/03 03:14:44;;;;;;;13.35;1.88;;;8.00;99.90;;;;;;5101174;28;20480;-78
2024/01/03 03:17:10;;;;;;;12.67;1.83;;;8.00;99.90;;;;;;5103068;28;20745;-78
2024/01/03 03:19:36;;;;;;;9.93;1.88;;;8.00;99.90;;;;;;5100736;28;20401;-78
2024/01/03 03:22:01;;;;;;;13.55;2.80;;;8.00;99.90;;;;;;5100744;28;20496;-79
2024/01/03 03:24:27;;;;;;;8.27;1.40;;;7.90;99.90;;;;;;5091418;28;20411;-78
2024/01/03 03:26:53;;;;;;;10.53;1.83;;;8.00;99.90;;;;;;5100864;28;20424;-78
2024/01/03 03:29:19;;;;;;;11.85;1.73;;;8.00;99.90;;;;;;5101590;28;20771;-78
2024/01/03 03:31:44;;;;;;;12.38;1.88;;;8.00;99.90;;;;;;5101618;28;20400;-78
2024/01/03 03:34:10;;;;;;;11.23;1.63;;;8.00;99.90;;;;;;5107741;28;20415;-78
2024/01/03 03:36:36;;;;;;;11.35;1.75;;;8.00;99.90;;;;;;5105398;28;20400;-78
2024/01/03 03:39:01;;;;;;;8.98;1.20;;;8.00;99.90;;;;;;5107229;28;20409;-78
2024/01/03 03:41:27;;;;;;;8.73;1.43;;;8.00;99.90;;;;;;5104902;28;20428;-79
2024/01/03 03:43:53;;;;;;;9.70;1.17;;;8.00;99.90;;;;;;5107026;28;20465;-78
2024/01/03 03:46:18;;;;;;;12.48;2.17;;;8.00;99.90;;;;;;5104888;28;20844;-78
2024/01/03 03:48:44;;;;;;;10.10;1.60;;;8.00;99.90;;;;;;5106370;28;20404;-78
2024/01/03 03:51:10;;;;;;;8.30;1.10;;;8.00;99.90;;;;;;5093384;28;20915;-78
2024/01/03 03:53:36;;;;;;;8.37;1.20;;;8.00;99.90;;;;;;5100225;28;20402;-78
2024/01/03 03:56:01;;;;;;;8.13;1.17;;;7.90;99.90;;;;;;5098472;28;20483;-78
2024/01/03 03:58:27;;;;;;;9.45;1.45;;;8.00;99.90;;;;;;5104216;28;20461;-78
2024/01/03 04:00:53;;;;;;;7.17;1.00;;;8.00;99.90;;;;;;5101702;28;20428;-78
2024/01/03 04:03:18;;;;;;;5.55;0.98;;;8.00;99.90;;;;;;5104115;28;20404;-78
2024/01/03 04:05:44;;;;;;;7.83;1.13;;;8.10;99.90;;;;;;5093840;28;20815;-79
2024/01/03 04:08:10;;;;;;;11.20;1.23;;;8.10;99.90;;;;;;5103556;28;20483;-78
2024/01/03 04:10:36;;;;;;;10.57;1.30;;;8.10;99.90;;;;;;5102990;28;20400;-78
2024/01/03 04:13:02;;;;;;;6.13;1.07;;;8.10;99.90;;;;;;5092535;28;20453;-77
2024/01/03 04:15:28;;;;;;;7.30;1.10;;;8.10;99.90;;;;;;5094373;28;20911;-77
2024/01/03 04:17:54;;;;;;;5.20;0.75;;;8.20;99.90;;;;;;5091710;28;20439;-77
2024/01/03 04:20:20;;;;;;;9.48;1.80;;;8.20;99.90;;;;;;5101861;28;20886;-78
2024/01/03 04:22:46;;;;;;;9.03;1.20;;;8.10;99.90;;;;;;5101314;28;20454;-78
2024/01/03 04:25:12;;;;;;;9.17;1.10;;;8.10;99.90;;;;;;5092188;28;20564;-78
2024/01/03 04:27:38;;;;;;;7.00;1.00;;;8.10;99.90;;;;;;5084415;28;20428;-78
2024/01/03 04:30:05;;;;;;;8.88;1.00;;;8.20;99.90;;;;;;5105467;28;20464;-78
2024/01/03 04:32:31;;;;;;;9.18;2.10;;;8.20;99.90;;;;;;5095555;28;20404;-78
2024/01/03 04:34:57;;;;;;;7.47;1.08;;;8.20;99.90;;;;;;5105494;28;20443;-77
2024/01/03 04:37:23;;;;;;;7.00;1.00;;;8.20;99.90;;;;;;5106106;28;20506;-78
2024/01/03 04:39:48;;;;;;;8.25;0.90;;;8.20;99.90;;;;;;5103367;28;20429;-77
2024/01/03 04:42:14;;;;;;;10.40;1.13;;;8.20;99.90;;;;;;5099291;28;20422;-77
2024/01/03 04:44:40;;;;;;;8.55;1.60;;;8.20;99.90;;;;;;5087655;28;21114;-78
2024/01/03 04:47:06;;;;;;;6.80;1.23;;;8.30;99.90;;;;;;5059531;28;20420;-78
2024/01/03 04:49:32;;;;;;;8.15;1.40;;;8.30;99.90;;;;;;5098958;28;20761;-78
2024/01/03 04:51:57;;;;;;;6.60;0.97;;;8.30;99.90;;;;;;5107048;28;20411;-77
2024/01/03 04:54:23;;;;;;;5.43;0.93;;;8.40;99.90;;;;;;5092567;28;20453;-78
2024/01/03 04:56:48;;;;;;;7.95;1.35;;;8.40;99.90;;;;;;5100912;28;20406;-77
2024/01/03 04:59:14;;;;;;;6.30;0.70;;;8.40;99.90;;;;;;5100412;28;20416;-78
2024/01/03 05:01:41;;;;;;;9.38;1.20;;;8.50;99.90;;;;;;5099504;28;20430;-77
2024/01/03 05:04:07;;;;;;;11.07;1.58;;;8.50;99.90;;;;;;5088426;28;20767;-77
2024/01/03 05:06:33;;;;;;;11.52;1.40;;;8.50;99.90;;;;;;5105468;28;20412;-78
2024/01/03 05:08:59;;;;;;;10.43;1.48;;;8.50;99.90;;;;;;5104619;28;21002;-77
2024/01/03 05:11:25;;;;;;;5.60;1.10;;;8.50;99.90;;;;;;5106091;28;20483;-78
2024/01/03 05:13:50;;;;;;;7.33;1.30;;;8.50;99.90;;;;;;5104366;28;20404;-77
2024/01/03 05:16:16;;;;;;;8.73;1.13;;;8.50;99.90;;;;;;5106602;28;20396;-78
2024/01/03 05:18:42;;;;;;;8.07;1.33;;;8.60;99.90;;;;;;5103687;28;20515;-77
2024/01/03 05:21:07;;;;;;;7.60;0.90;;;8.60;99.90;;;;;;5105784;28;20428;-78
2024/01/03 05:23:33;;;;;;;9.20;1.15;;;8.60;99.90;;;;;;5102550;28;20413;-77
2024/01/03 05:25:58;;;;;;;5.97;0.90;;;8.60;99.90;;;;;;5094710;28;20400;-78
2024/01/03 05:28:24;;;;;;;7.97;1.08;;;8.60;99.90;;;;;;5086315;28;20763;-78
2024/01/03 05:30:49;;;;;;;7.93;1.30;;;8.60;99.90;;;;;;5094396;28;20519;-78
2024/01/03 05:33:15;;;;;;;5.38;1.40;;;8.60;99.90;;;;;;5104681;28;21006;-77
2024/01/03 05:35:41;;;;;;;13.18;2.20;;;8.70;99.90;;;;;;5105415;28;20400;-78
2024/01/03 05:38:07;;;;;;;10.03;1.80;;;8.70;99.90;;;;;;5092963;28;20536;-77
2024/01/03 05:40:33;;;;;;;10.18;1.35;;;8.70;99.90;;;;;;5106117;28;20516;-77
2024/01/03 05:42:58;;;;;;;11.93;1.58;;;8.70;99.90;;;;;;5104520;28;20929;-77
2024/01/03 05:45:24;;;;;;;6.07;1.38;;;8.70;99.90;;;;;;5106211;28;20759;-78
2024/01/03 05:47:49;;;;;;;11.97;1.70;;;8.70;99.90;;;;;;5104572;28;20392;-78
2024/01/03 05:50:15;;;;;;;8.40;1.40;;;8.80;99.70;;;;;;5105844;28;20396;-78
2024/01/03 05:52:41;;;;;;;7.67;1.43;;;8.80;99.50;;;;;;5104926;28;20400;-78
2024/01/03 05:55:07;;;;;;;8.47;1.40;;;8.80;99.60;;;;;;5105300;28;20496;-77
2024/01/03 05:57:35;;;;;;;9.38;1.52;;;8.80;99.50;;;;;;5104605;28;20392;-78
2024/01/03 06:00:02;;;;;;;9.40;1.40;;;8.80;99.40;;;;;;5103111;28;20408;-77
2024/01/03 06:02:28;;;;;;;8.32;1.23;;;8.80;99.10;;;;;;5103578;28;20397;-77
2024/01/03 06:04:54;;;;;;;9.87;1.17;;;8.80;98.90;;;;;;5103644;28;20754;-77
2024/01/03 06:07:19;;;;;;;7.85;0.90;;;8.80;98.80;;;;;;5102983;28;20457;-77
2024/01/03 06:09:45;;;;;;;10.03;1.20;;;8.80;98.80;;;;;;5101496;28;20415;-77
2024/01/03 06:12:11;;;;;;;8.68;1.20;;;8.80;98.60;;;;;;5102574;28;20533;-78
2024/01/03 06:14:36;;;;;;;8.90;1.38;;;8.80;98.70;;;;;;5101420;28;20408;-77
2024/01/03 06:17:02;;;;;;;8.77;1.57;;;8.80;99.30;;;;;;5102749;28;20491;-76
2024/01/03 06:19:28;;;;;;;8.70;1.23;;;8.70;99.60;;;;;;5101262;28;20404;-78
2024/01/03 06:21:53;;;;;;;8.63;1.40;;;8.60;99.90;;;;;;5102784;28;20428;-77
2024/01/03 06:24:19;;;;;;;6.13;0.87;;;8.60;99.90;;;;;;5095695;28;20434;-77
2024/01/03 06:26:44;;;;;;;8.30;1.13;;;8.50;99.90;;;;;;5099351;28;21123;-78
2024/01/03 06:29:10;;;;;;;9.30;1.20;;;8.40;99.90;;;;;;5103470;28;20405;-77
2024/01/03 06:31:36;;;;;;;6.72;0.95;;;8.40;99.90;;;;;;5104553;28;20404;-77
2024/01/03 06:34:01;;;;;;;6.80;1.00;;;8.40;99.90;;;;;;5108571;28;20436;-78
2024/01/03 06:36:27;;;;;;;8.27;1.20;;;8.30;99.90;;;;;;5109191;28;20411;-79
2024/01/03 06:38:53;;;;;;;5.53;0.93;;;8.30;99.90;;;;;;5097147;28;20427;-79
2024/01/03 06:41:18;;;;;;;8.37;1.53;;;8.30;99.90;;;;;;5096657;28;20438;-79
2024/01/03 06:43:47;;;;;;;12.45;1.88;;;8.30;99.90;;;;;;5086126;28;20950;-79
2024/01/03 06:46:13;;;;;;;14.27;2.25;;;8.30;99.90;;;;;;5103272;28;20457;-78
2024/01/03 06:48:38;;;;;;;13.53;2.47;;;8.30;99.90;;;;;;5107672;28;20420;-78
2024/01/03 06:51:04;;;;;;;18.60;3.38;;;8.30;99.90;;;;;;5106960;28;20808;-78
2024/01/03 06:53:31;;;;;;;20.17;3.73;;;8.30;99.90;;;;;;5109547;28;20392;-78
2024/01/03 06:55:56;;;;;;;23.33;3.20;;;8.30;99.90;;;;;;5105785;28;20435;-78
2024/01/03 06:58:23;;;;;;;17.55;3.08;;;8.40;99.90;;;;;;5102741;28;20771;-78
2024/01/03 07:00:48;;;;;;;18.55;3.25;;;8.40;99.90;;;;;;5102364;28;20937;-78
2024/01/03 07:03:15;;;;;;;16.30;2.55;;;8.40;99.90;;;;;;5097526;28;20461;-79
2024/01/03 07:05:41;;;;;;;17.10;2.22;;;8.40;99.90;;;;;;5095155;28;20402;-78
2024/01/03 07:08:07;;;;;;;16.50;2.67;;;8.40;99.90;;;;;;5107880;28;20418;-78
2024/01/03 07:10:34;;;;;;;17.60;2.92;;;8.40;99.90;;;;;;5103384;28;20774;-79
2024/01/03 07:13:00;;;;;;;19.88;3.20;;;8.40;99.90;;;;;;5107393;28;20400;-79
2024/01/03 07:15:26;;;;;;;23.05;3.28;;;8.50;99.90;;;;;;5094963;28;20394;-78
2024/01/03 07:17:55;;;;;;;22.02;3.63;;;8.40;99.90;;;;;;5105941;28;20811;-79
2024/01/03 07:20:22;;;;;;;23.02;4.20;;;8.40;99.90;;;;;;5103775;28;20425;-79
2024/01/03 07:22:47;;;;;;;26.48;3.75;;;8.40;99.90;;;;;;5106557;28;20399;-78
2024/01/03 07:25:13;;;;;;;21.27;3.37;;;8.40;99.90;;;;;;5092179;28;20450;-78
2024/01/03 07:27:39;;;;;;;21.75;3.47;;;8.40;99.90;;;;;;5098219;28;20404;-79
2024/01/03 07:30:05;;;;;;;21.83;3.60;;;8.50;99.90;;;;;;5087740;28;20409;-78
2024/01/03 07:32:31;;;;;;;22.73;4.28;;;8.50;99.90;;;;;;5107280;28;20409;-79
2024/01/03 07:34:56;;;;;;;20.83;3.83;;;8.50;99.90;;;;;;5105485;28;20409;-78
2024/01/03 07:37:22;;;;;;;26.03;3.47;;;8.50;99.90;;;;;;5097317;28;20400;-78
2024/01/03 07:39:47;;;;;;;23.67;3.78;;;8.60;99.90;;;;;;5105869;28;20400;-78
2024/01/03 07:42:13;;;;;;;22.23;3.60;;;8.60;99.90;;;;;;5108223;28;20831;-78
2024/01/03 07:44:41;;;;;;;18.43;3.53;;;8.60;99.90;;;;;;5105132;28;20412;-78
2024/01/03 07:47:08;;;;;;;20.25;3.40;;;8.60;99.90;;;;;;5068173;28;20415;-78
2024/01/03 07:49:35;;;;;;;15.07;2.85;;;8.60;99.90;;;;;;5088049;28;20416;-78
2024/01/03 07:52:01;;;;;;;18.63;3.13;;;8.60;99.90;;;;;;5091589;28;20544;-78
2024/01/03 07:54:26;;;;;;;13.27;2.50;;;8.70;99.90;;;;;;5103436;28;20896;-79
2024/01/03 07:56:52;;;;;;;17.07;2.60;;;8.70;99.90;;;;;;5105030;28;20405;-78
2024/01/03 07:59:17;;;;;;;18.25;2.92;;;8.70;99.90;;;;;;5103042;28;20812;-78
2024/01/03 08:01:43;;;;;;;17.77;2.97;;;8.70;99.90;;;;;;5103595;28;20515;-78
2024/01/03 08:04:08;;;;;;;19.38;4.47;;;8.80;99.90;;;;;;5102459;28;20418;-78
2024/01/03 08:06:34;;;;;;;17.13;3.23;;;8.80;99.90;;;;;;5099975;28;20504;-78
2024/01/03 08:09:00;;;;;;;18.75;3.05;;;8.80;99.90;;;;;;5099172;28;20400;-78
2024/01/03 08:11:26;;;;;;;19.63;3.20;;;8.80;99.90;;;;;;5104658;28;20407;-78
2024/01/03 08:13:51;;;;;;;21.35;3.58;;;8.80;99.90;;;;;;5102267;28;20972;-78
2024/01/03 08:16:17;;;;;;;18.10;3.13;;;8.80;99.90;;;;;;5102805;28;20400;-78
2024/01/03 08:18:44;;;;;;;17.83;2.85;;;8.80;99.90;;;;;;5101378;28;20996;-78
2024/01/03 08:21:10;;;;;;;13.98;2.58;;;8.80;99.90;;;;;;5093598;28;20938;-78
2024/01/03 08:23:36;;;;;;;14.23;2.33;;;8.80;99.90;;;;;;5100332;28;20805;-78
2024/01/03 08:26:13;;;;;;;15.17;2.40;;;8.80;99.90;;;;;;5095030;28;20405;-78
2024/01/03 08:28:40;;;;;;;13.80;2.47;;;8.80;99.90;;;;;;5102538;28;20505;-78
2024/01/03 08:31:08;;;;;;;17.83;2.78;;;8.80;99.90;;;;;;5098318;28;20412;-78
2024/01/03 08:33:34;;;;;;;14.25;2.33;;;8.80;99.90;;;;;;5104575;28;20406;-78
2024/01/03 08:36:01;;;;;;;20.13;3.13;;;8.80;99.90;;;;;;5089139;28;20933;-78
2024/01/03 08:38:27;;;;;;;17.73;3.08;;;8.80;99.90;;;;;;5103587;28;20409;-78
2024/01/03 08:40:52;;;;;;;17.47;3.30;;;8.90;99.90;;;;;;5105851;28;20960;-78
2024/01/03 08:43:18;;;;;;;20.05;3.20;;;8.90;99.90;;;;;;5075184;28;20459;-78
2024/01/03 08:45:43;;;;;;;17.67;2.77;;;8.90;99.90;;;;;;5107396;28;20910;-78
2024/01/03 08:48:09;;;;;;;18.00;2.80;;;8.90;99.90;;;;;;5102886;28;20443;-78
2024/01/03 08:50:34;;;;;;;20.70;3.67;;;8.90;99.90;;;;;;5107037;28;21011;-78
2024/01/03 08:53:00;;;;;;;20.13;2.97;;;8.80;99.90;;;;;;5104247;28;20805;-79
2024/01/03 08:55:26;;;;;;;19.55;3.63;;;8.80;99.90;;;;;;5098407;28;20394;-78
2024/01/03 08:57:56;;;;;;;18.40;3.20;;;8.80;99.90;;;;;;5083294;28;20410;-78
2024/01/03 09:00:23;;;;;;;17.90;2.78;;;8.80;99.90;;;;;;5105494;28;20481;-78
2024/01/03 09:02:48;;;;;;;18.97;3.57;;;8.70;99.90;;;;;;5101954;28;20483;-78
2024/01/03 09:05:14;;;;;;;20.00;3.10;;;8.70;99.90;;;;;;5106813;28;20483;-79
2024/01/03 09:07:42;;;;;;;20.52;3.35;;;8.70;99.90;;;;;;5084471;28;20781;-78
2024/01/03 09:10:08;;;;;;;20.57;3.20;;;8.70;99.90;;;;;;5104166;28;20400;-78
2024/01/03 09:12:33;;;;;;;17.40;2.70;;;8.70;99.90;;;;;;5101682;28;20411;-78
2024/01/03 09:14:59;;;;;;;14.33;2.60;;;8.80;99.90;;;;;;5105497;28;20507;-78
2024/01/03 09:17:25;;;;;;;15.50;2.28;;;8.80;99.90;;;;;;5089981;28;20402;-79
2024/01/03 09:19:50;;;;;;;14.37;1.97;;;8.80;99.90;;;;;;5096617;28;20968;-78
2024/01/03 09:22:16;;;;;;;10.57;1.83;;;8.80;99.90;;;;;;5100524;28;20433;-78
2024/01/03 09:24:42;;;;;;;11.05;1.38;;;8.80;99.90;;;;;;5088352;28;21048;-78
2024/01/03 09:27:07;;;;;;;11.60;1.70;;;8.80;99.90;;;;;;5103018;28;20409;-78
2024/01/03 09:29:33;;;;;;;11.10;1.55;;;8.80;99.90;;;;;;5105646;28;20435;-78
2024/01/03 09:31:59;;;;;;;10.55;1.58;;;8.80;99.90;;;;;;5102883;28;20426;-78
2024/01/03 09:34:24;;;;;;;13.73;2.07;;;8.80;99.90;;;;;;5106003;28;20641;-79
2024/01/03 09:36:53;;;;;;;11.93;1.95;;;8.90;99.90;;;;;;5102145;28;20891;-78
2024/01/03 09:39:19;;;;;;;13.93;2.38;;;9.00;99.90;;;;;;5105873;28;20412;-78
2024/01/03 09:41:47;;;;;;;17.17;2.30;;;9.00;99.90;;;;;;5101658;28;20460;-78
2024/01/03 09:44:13;;;;;;;17.50;2.60;;;9.00;99.90;;;;;;5104145;28;20457;-78
2024/01/03 09:46:39;;;;;;;19.98;2.92;;;9.00;99.90;;;;;;5102217;28;20409;-78
2024/01/03 09:49:05;;;;;;;15.95;2.67;;;9.00;99.90;;;;;;5105585;28;20403;-78
2024/01/03 09:51:31;;;;;;;14.48;2.75;;;9.00;99.90;;;;;;5101001;28;20877;-78
2024/01/03 09:53:56;;;;;;;19.08;2.53;;;9.00;99.90;;;;;;5104097;28;20763;-79
2024/01/03 09:56:22;;;;;;;15.65;2.38;;;8.90;99.90;;;;;;5100465;28;20398;-78
2024/01/03 09:58:48;;;;;;;18.27;2.28;;;8.90;99.90;;;;;;5104569;28;20411;-79
2024/01/03 10:01:14;;;;;;;18.77;3.17;;;8.90;99.90;;;;;;5097400;28;20437;-78
2024/01/03 10:03:39;;;;;;;16.00;2.65;;;8.80;99.90;;;;;;5097071;28;20735;-78
2024/01/03 10:06:06;;;;;;;11.82;2.35;;;8.90;99.90;;;;;;5100110;28;20982;-78
2024/01/03 10:08:34;;;;;;;12.82;2.20;;;8.90;99.90;;;;;;5103969;28;20412;-78
2024/01/03 10:11:00;;;;;;;14.13;1.90;;;8.90;99.90;;;;;;5083080;28;20418;-78
2024/01/03 10:13:28;;;;;;;13.10;2.03;;;8.90;99.90;;;;;;5104916;28;20496;-78
2024/01/03 10:15:53;;;;;;;11.10;2.20;;;9.00;99.90;;;;;;5091092;28;20402;-77
2024/01/03 10:18:21;;;;;;;15.80;2.78;;;9.00;99.90;;;;;;5093607;28;20995;-77
2024/01/03 10:20:47;;;;;;;11.43;2.38;;;9.10;99.90;;;;;;5098226;28;20491;-77
2024/01/03 10:23:14;;;;;;;11.25;1.90;;;9.10;99.90;;;;;;5101608;28;20424;-77
2024/01/03 10:25:42;;;;;;;15.02;2.50;;;9.10;99.90;;;;;;5091090;28;20485;-77
2024/01/03 10:28:12;;;;;;;15.73;2.40;;;9.00;99.90;;;;;;5105882;28;20401;-77
2024/01/03 10:30:38;;;;;;;12.98;2.63;;;9.00;99.90;;;;;;5102481;28;20965;-78
2024/01/03 10:33:07;;;;;;;17.15;2.25;;;9.00;99.90;;;;;;5105404;28;20400;-77
2024/01/03 10:35:35;;;;;;;14.07;1.83;;;9.00;99.90;;;;;;5102508;28;20408;-78
2024/01/03 10:38:02;;;;;;;10.27;1.88;;;8.90;99.90;;;;;;5104351;28;20404;-77
2024/01/03 10:40:33;;;;;;;11.73;1.95;;;8.90;99.90;;;;;;5101949;28;20517;-78
2024/01/03 10:43:00;;;;;;;14.23;2.00;;;8.80;99.90;;;;;;5092474;28;20401;-78
2024/01/03 10:45:27;;;;;;;11.88;2.03;;;8.80;99.90;;;;;;5103477;28;20489;-79
2024/01/03 10:47:53;;;;;;;9.63;1.80;;;8.80;99.90;;;;;;5102163;28;20458;-79
2024/01/03 10:50:19;;;;;;;5.80;1.05;;;8.70;99.90;;;;;;5103733;28;20863;-79
2024/01/03 10:52:46;;;;;;;8.57;1.20;;;8.60;99.90;;;;;;5102683;28;20433;-79
2024/01/03 10:55:20;;;;;;;3.85;0.80;;;8.50;99.90;;;;;;5102986;28;20403;-78
2024/01/03 10:58:06;;;;;;;6.60;1.08;;;8.40;99.90;;;;;;5099756;28;20505;-79
2024/01/03 11:00:53;;;;;;;6.73;1.13;;;8.40;99.90;;;;;;5095914;28;20778;-78
2024/01/03 11:03:45;;;;;;;8.48;1.10;;;8.40;99.90;;;;;;5088939;28;20416;-78
2024/01/03 11:06:21;;;;;;;9.50;1.58;;;8.30;99.90;;;;;;5097367;28;20418;-78
2024/01/03 11:08:59;;;;;;;11.57;1.80;;;8.40;99.90;;;;;;5100656;28;20816;-78
2024/01/03 11:11:32;;;;;;;11.20;1.75;;;8.30;99.90;;;;;;5100537;28;20393;-78
2024/01/03 11:14:19;;;;;;;10.17;1.80;;;8.40;99.90;;;;;;5097343;28;20408;-78
2024/01/03 11:16:45;;;;;;;10.55;1.77;;;8.40;99.90;;;;;;5086836;28;20848;-78
2024/01/03 11:19:11;;;;;;;10.63;1.53;;;8.40;99.90;;;;;;5095562;28;20449;-78
2024/01/03 11:21:39;;;;;;;9.47;1.50;;;8.40;99.90;;;;;;5105560;28;20949;-78
2024/01/03 11:24:07;;;;;;;12.50;2.00;;;8.40;99.90;;;;;;5093429;28;20414;-78
2024/01/03 11:26:52;;;;;;;9.67;1.83;;;8.40;99.90;;;;;;5101841;28;20495;-78
2024/01/03 11:29:42;;;;;;;12.27;2.25;;;8.50;99.90;;;;;;5086930;28;20461;-78
2024/01/03 11:32:27;;;;;;;11.90;1.92;;;8.50;99.90;;;;;;5105978;28;20415;-78
2024/01/03 11:34:52;;;;;;;10.23;1.70;;;8.50;99.90;;;;;;5089455;28;20419;-78
2024/01/03 11:37:18;;;;;;;13.07;2.03;;;8.70;99.90;;;;;;5101309;27;20408;-78
2024/01/03 11:39:46;;;;;;;12.73;2.10;;;8.90;99.90;;;;;;5106964;28;20736;-77
2024/01/03 11:42:31;;;;;;;9.02;2.00;;;9.10;99.90;;;;;;5109226;28;20420;-78
2024/01/03 11:45:07;;;;;;;13.30;1.90;;;9.10;99.90;;;;;;5095973;28;20411;-78
2024/01/03 11:47:41;;;;;;;15.27;1.90;;;9.00;99.90;;;;;;5097512;28;20414;-78
2024/01/03 11:50:08;;;;;;;12.45;1.45;;;8.90;99.90;;;;;;5103374;28;20409;-77
2024/01/03 11:52:39;;;;;;;17.17;2.30;;;9.00;99.90;;;;;;5107488;28;21015;-77
2024/01/03 11:55:12;;;;;;;16.00;2.65;;;9.00;99.90;;;;;;5107075;28;20403;-78
2024/01/03 11:57:41;;;;;;;13.90;2.35;;;9.00;99.90;;;;;;5105722;28;20412;-77
2024/01/03 12:00:21;;;;;;;17.80;2.53;;;9.20;99.90;;;;;;5098920;28;20418;-78
2024/01/03 12:02:50;;;;;;;17.30;2.20;;;9.30;99.90;;;;;;5102133;28;20932;-78
2024/01/03 12:05:16;;;;;;;17.33;2.80;;;9.50;99.90;;;;;;5088903;28;20754;-78
2024/01/03 12:07:42;;;;;;;14.25;2.60;;;9.60;99.90;;;;;;5101829;28;20413;-78
2024/01/03 12:10:10;;;;;;;13.95;1.75;;;9.70;99.90;;;;;;5104988;28;20436;-77
2024/01/03 12:12:36;;;;;;;10.70;1.75;;;9.70;99.90;;;;;;5102347;28;20892;-78
2024/01/03 12:15:01;;;;;;;10.95;1.90;;;9.80;99.90;;;;;;5106558;28;20445;-77
2024/01/03 12:17:29;;;;;;;14.83;2.27;;;9.80;99.90;;;;;;5101287;28;21220;-77
2024/01/03 12:20:06;;;;;;;10.73;1.92;;;9.90;99.90;;;;;;5104557;28;20762;-77
2024/01/03 12:22:32;;;;;;;10.57;1.90;;;10.00;99.90;;;;;;5098207;28;20440;-77
2024/01/03 12:24:57;;;;;;;12.13;2.03;;;10.10;99.90;;;;;;5092964;28;20414;-77
2024/01/03 12:27:23;;;;;;;14.07;2.53;;;10.20;99.90;;;;;;5105759;28;20412;-77
2024/01/03 12:29:49;;;;;;;18.05;2.08;;;10.30;99.90;;;;;;5107561;28;20404;-77
2024/01/03 12:32:19;;;;;;;12.68;2.33;;;10.40;99.90;;;;;;5103635;28;20758;-77
2024/01/03 12:34:46;;;;;;;11.55;2.15;;;10.50;98.30;;;;;;5106568;28;20409;-77
2024/01/03 12:37:15;;;;;;;11.52;1.60;;;10.50;98.20;;;;;;5104223;28;20453;-78
2024/01/03 12:39:41;;;;;;;12.40;1.50;;;10.70;97.80;;;;;;5104479;28;21113;-77
2024/01/03 12:42:09;;;;;;;10.93;1.75;;;11.00;95.10;;;;;;5104876;28;20511;-77
2024/01/03 12:44:39;;;;;;;14.13;1.63;;;11.20;93.20;;;;;;5105270;28;20404;-77
2024/01/03 12:47:09;;;;;;;13.18;1.80;;;11.10;90.80;;;;;;5103786;28;20415;-77
2024/01/03 12:49:37;;;;;;;11.10;1.95;;;10.90;91.70;;;;;;5104392;28;20400;-77